Time;durP1;ratioP1;P1;durP2;ratioP2;P2;SDS_P1;SDS_P2;PMS_P1;PMS_P2;Temp;Humidity;BMP_temperature;BMP_pressure;BME280_temperature;BME280_humidity;BME280_pressure;Samples;Min_cycle;Max_cycle;Signal;HPM_P1;HPM_P2
2022/12/23 00:00:16;;;;;;;374.13;57.95;;;7.60;99.90;;;;;;5026830;28;20037;-65
2022/12/23 00:02:42;;;;;;;540.60;65.25;;;7.60;99.90;;;;;;5024167;28;20048;-66
2022/12/23 00:05:08;;;;;;;296.60;55.30;;;7.60;99.90;;;;;;5021858;28;20042;-66
2022/12/23 00:07:34;;;;;;;255.63;52.40;;;7.60;99.90;;;;;;5020823;28;20485;-65
2022/12/23 00:10:00;;;;;;;229.35;52.22;;;7.50;99.90;;;;;;5021575;28;20041;-66
2022/12/23 00:15:11;;;;;;;212.43;50.92;;;7.60;99.90;;;;;;5017564;28;20069;-65
2022/12/23 00:17:41;;;;;;;269.65;53.92;;;7.60;99.90;;;;;;5023491;28;20095;-66
2022/12/23 00:20:09;;;;;;;512.80;64.10;;;7.60;99.90;;;;;;5022073;28;20037;-66
2022/12/23 00:25:19;;;;;;;305.92;53.92;;;7.70;99.90;;;;;;5019650;28;20076;-65
2022/12/23 00:28:00;;;;;;;335.77;54.90;;;7.60;99.90;;;;;;5026713;28;20041;-66
2022/12/23 00:30:27;;;;;;;191.07;49.75;;;7.60;99.90;;;;;;5018204;28;20527;-66
2022/12/23 00:32:53;;;;;;;207.25;49.25;;;7.70;99.90;;;;;;5022022;28;20073;-66
2022/12/23 00:35:19;;;;;;;315.55;54.97;;;7.60;99.90;;;;;;5016924;28;20081;-65
2022/12/23 00:37:44;;;;;;;472.73;60.90;;;7.60;99.90;;;;;;5021590;28;20426;-66
2022/12/23 00:42:59;;;;;;;200.43;47.72;;;7.70;99.90;;;;;;5019707;28;20060;-65
2022/12/23 00:45:25;;;;;;;297.08;53.13;;;7.70;99.90;;;;;;5013165;28;20038;-66
2022/12/23 00:50:38;;;;;;;152.25;45.20;;;7.70;99.90;;;;;;5032949;28;20052;-66
2022/12/23 00:53:05;;;;;;;175.05;46.75;;;7.70;99.90;;;;;;5018540;28;20037;-66
2022/12/23 00:55:31;;;;;;;177.60;47.60;;;7.70;99.90;;;;;;5016387;28;20034;-66
2022/12/23 00:57:57;;;;;;;208.10;48.90;;;7.70;99.90;;;;;;5018937;28;20045;-66
2022/12/23 01:05:35;;;;;;;169.07;47.28;;;7.70;99.90;;;;;;5017072;28;20065;-66
2022/12/23 01:05:59;;;;;;;298.38;52.92;;;7.70;99.90;;;;;;5036862;28;20053;-66
2022/12/23 01:08:25;;;;;;;304.83;52.97;;;7.70;99.90;;;;;;5019562;28;20062;-66
2022/12/23 01:10:51;;;;;;;303.33;52.10;;;7.70;99.90;;;;;;5017370;28;20092;-66
2022/12/23 01:13:17;;;;;;;144.45;43.85;;;7.70;99.90;;;;;;5016019;28;20435;-66
2022/12/23 01:15:43;;;;;;;176.43;45.60;;;7.70;99.90;;;;;;5013767;28;20033;-66
2022/12/23 01:18:08;;;;;;;221.63;49.85;;;7.70;99.90;;;;;;5016936;28;20049;-65
2022/12/23 01:20:37;;;;;;;213.00;47.80;;;7.70;99.90;;;;;;5023644;28;20052;-65
2022/12/23 01:23:04;;;;;;;166.85;45.22;;;7.70;99.90;;;;;;5018011;28;20050;-65
2022/12/23 01:25:30;;;;;;;163.30;46.67;;;7.70;99.90;;;;;;5016121;28;20045;-65
2022/12/23 01:27:56;;;;;;;177.73;47.33;;;7.70;99.90;;;;;;5018080;28;20046;-65
2022/12/23 01:30:22;;;;;;;173.00;46.90;;;7.80;99.90;;;;;;5019381;28;20611;-66
2022/12/23 01:32:48;;;;;;;154.60;45.65;;;7.70;99.90;;;;;;5019544;28;20036;-66
2022/12/23 01:35:13;;;;;;;175.88;46.47;;;7.70;99.90;;;;;;5017023;28;20100;-66
2022/12/23 01:37:39;;;;;;;203.80;49.65;;;7.70;99.90;;;;;;5018141;28;20405;-66
2022/12/23 01:40:06;;;;;;;198.30;49.53;;;7.70;99.90;;;;;;5021728;28;20087;-65
2022/12/23 01:42:44;;;;;;;175.48;47.88;;;7.70;99.90;;;;;;5017979;28;20045;-65
2022/12/23 01:45:20;;;;;;;192.18;49.95;;;7.60;99.90;;;;;;5017420;28;20045;-66
2022/12/23 01:47:55;;;;;;;318.52;56.10;;;7.60;99.90;;;;;;5022471;28;20076;-65
2022/12/23 01:50:36;;;;;;;248.75;52.88;;;7.60;99.90;;;;;;5017923;28;20042;-66
2022/12/23 01:53:10;;;;;;;183.75;48.38;;;7.60;99.90;;;;;;5022080;28;20040;-65
2022/12/23 01:55:46;;;;;;;208.77;51.10;;;7.60;99.90;;;;;;5017910;28;20059;-65
2022/12/23 01:58:20;;;;;;;240.23;52.38;;;7.60;99.90;;;;;;5019351;28;20054;-65
2022/12/23 02:03:42;;;;;;;186.95;48.90;;;7.60;99.90;;;;;;5015637;28;20037;-65
2022/12/23 02:09:17;;;;;;;246.27;51.97;;;7.70;99.90;;;;;;5018204;28;20478;-65
2022/12/23 02:12:05;;;;;;;208.57;49.05;;;7.70;99.90;;;;;;5021124;28;20371;-65
2022/12/23 02:18:08;;;;;;;235.77;51.45;;;7.60;99.90;;;;;;5023381;28;20038;-65
2022/12/23 02:21:01;;;;;;;192.98;50.10;;;7.60;99.90;;;;;;5014922;28;20524;-66
2022/12/23 02:23:55;;;;;;;233.10;49.50;;;7.60;99.90;;;;;;5018808;28;20406;-65
2022/12/23 02:26:27;;;;;;;205.00;48.25;;;7.60;99.90;;;;;;5018815;28;20460;-66
2022/12/23 02:29:06;;;;;;;227.05;50.15;;;7.60;99.90;;;;;;5020926;28;20124;-65
2022/12/23 02:31:58;;;;;;;292.60;53.67;;;7.60;99.90;;;;;;5016242;28;20029;-65
2022/12/23 02:34:31;;;;;;;327.38;53.13;;;7.60;99.90;;;;;;5017987;28;20049;-65
2022/12/23 02:37:29;;;;;;;329.38;52.60;;;7.50;99.90;;;;;;5019112;28;20091;-65
2022/12/23 02:40:03;;;;;;;203.88;49.03;;;7.50;99.90;;;;;;5017620;28;20408;-65
2022/12/23 02:42:35;;;;;;;230.57;49.22;;;7.50;99.90;;;;;;5019002;28;20674;-66
2022/12/23 02:45:12;;;;;;;200.15;48.30;;;7.50;99.90;;;;;;5015247;28;20041;-66
2022/12/23 02:47:43;;;;;;;343.42;53.40;;;7.60;99.90;;;;;;5012866;28;20296;-65
2022/12/23 02:50:17;;;;;;;228.60;49.20;;;7.50;99.90;;;;;;5017368;28;20050;-66
2022/12/23 02:52:45;;;;;;;166.80;45.50;;;7.50;99.90;;;;;;5023267;28;20041;-67
2022/12/23 02:55:21;;;;;;;185.48;45.00;;;7.60;99.90;;;;;;5014225;28;20053;-66
2022/12/23 02:57:49;;;;;;;161.90;40.80;;;7.50;99.90;;;;;;5022502;28;20049;-66
2022/12/23 03:00:16;;;;;;;201.25;41.42;;;7.50;99.90;;;;;;5017041;28;20049;-67
2022/12/23 03:02:42;;;;;;;136.77;38.17;;;7.50;99.90;;;;;;5019079;28;20079;-66
2022/12/23 03:05:42;;;;;;;124.22;36.20;;;7.50;99.90;;;;;;5019605;28;20037;-66
2022/12/23 03:08:21;;;;;;;115.68;35.63;;;7.50;99.90;;;;;;5021119;28;20505;-66
2022/12/23 03:11:06;;;;;;;157.35;38.90;;;7.50;99.90;;;;;;5018773;28;20037;-66
2022/12/23 03:14:00;;;;;;;141.65;35.08;;;7.50;99.90;;;;;;5015534;28;20058;-66
2022/12/23 03:16:49;;;;;;;156.52;38.33;;;7.50;99.90;;;;;;5012410;28;20085;-67
2022/12/23 03:19:37;;;;;;;151.00;39.40;;;7.50;99.90;;;;;;5014393;28;20072;-66
2022/12/23 03:22:18;;;;;;;163.07;40.45;;;7.50;99.90;;;;;;5014526;28;20360;-65
2022/12/23 03:24:52;;;;;;;363.67;47.47;;;7.50;99.90;;;;;;5017166;28;20033;-65
2022/12/23 03:27:29;;;;;;;195.52;42.83;;;7.50;99.90;;;;;;5017694;28;20434;-66
2022/12/23 03:30:01;;;;;;;203.43;41.17;;;7.40;99.90;;;;;;5014336;28;20045;-66
2022/12/23 03:32:31;;;;;;;241.73;42.55;;;7.50;99.90;;;;;;5018571;28;20038;-66
2022/12/23 03:35:00;;;;;;;227.35;42.67;;;7.50;99.90;;;;;;5015703;28;20057;-67
2022/12/23 03:37:28;;;;;;;337.42;46.47;;;7.40;99.90;;;;;;5017292;28;20533;-67
2022/12/23 03:40:08;;;;;;;212.63;42.45;;;7.50;99.90;;;;;;5018151;28;20160;-66
2022/12/23 03:42:37;;;;;;;472.45;51.05;;;7.50;99.90;;;;;;5019575;28;20049;-65
2022/12/23 03:45:12;;;;;;;251.55;44.10;;;7.50;99.90;;;;;;5018053;28;20568;-67
2022/12/23 03:47:47;;;;;;;216.90;41.78;;;7.50;99.90;;;;;;5019008;28;20056;-65
2022/12/23 03:50:16;;;;;;;299.40;43.63;;;7.50;99.90;;;;;;5020735;28;20071;-65
2022/12/23 03:52:49;;;;;;;254.57;45.22;;;7.50;99.90;;;;;;5027447;28;20049;-65
2022/12/23 03:55:24;;;;;;;159.52;37.55;;;7.50;99.90;;;;;;5035564;28;20173;-66
2022/12/23 03:58:02;;;;;;;211.13;39.00;;;7.40;99.90;;;;;;5018919;28;20068;-65
2022/12/23 04:00:33;;;;;;;370.90;44.95;;;7.50;99.90;;;;;;5023285;28;20789;-66
2022/12/23 04:03:05;;;;;;;213.68;40.72;;;7.50;99.90;;;;;;5018796;28;20037;-65
2022/12/23 04:05:36;;;;;;;160.65;36.95;;;7.40;99.90;;;;;;5020494;28;20045;-65
2022/12/23 04:08:21;;;;;;;179.40;37.55;;;7.50;99.90;;;;;;5018788;28;20084;-65
2022/12/23 04:10:47;;;;;;;156.00;34.58;;;7.50;99.90;;;;;;5021055;28;20099;-66
2022/12/23 04:13:13;;;;;;;183.88;36.53;;;7.50;99.90;;;;;;5019639;28;20517;-66
2022/12/23 04:15:41;;;;;;;144.25;34.20;;;7.50;99.90;;;;;;5020986;28;20052;-65
2022/12/23 04:18:08;;;;;;;188.52;35.80;;;7.50;99.90;;;;;;5016627;28;20042;-67
2022/12/23 04:20:35;;;;;;;135.63;34.17;;;7.40;99.90;;;;;;5018647;28;20038;-65
2022/12/23 04:23:01;;;;;;;139.48;34.38;;;7.50;99.90;;;;;;5023084;28;20520;-65
2022/12/23 04:25:27;;;;;;;135.90;33.83;;;7.50;99.90;;;;;;5018353;28;20037;-65
2022/12/23 04:27:52;;;;;;;224.30;38.65;;;7.50;99.90;;;;;;5020955;28;20041;-65
2022/12/23 04:30:18;;;;;;;134.52;31.70;;;7.40;99.90;;;;;;5023719;28;20508;-66
2022/12/23 04:32:44;;;;;;;172.55;33.25;;;7.50;99.90;;;;;;5027935;28;20045;-66
2022/12/23 04:35:10;;;;;;;99.32;29.60;;;7.40;99.90;;;;;;5024683;28;20168;-66
2022/12/23 04:37:37;;;;;;;130.18;30.92;;;7.40;99.90;;;;;;5022593;28;20078;-65
2022/12/23 04:40:03;;;;;;;141.52;31.13;;;7.50;99.90;;;;;;5019146;28;20120;-66
2022/12/23 04:42:29;;;;;;;116.75;30.27;;;7.50;99.90;;;;;;5023535;28;20030;-65
2022/12/23 04:44:55;;;;;;;180.25;31.52;;;7.50;99.90;;;;;;5014659;28;20040;-65
2022/12/23 04:47:20;;;;;;;144.32;30.65;;;7.30;99.90;;;;;;5023681;28;20118;-65
2022/12/23 04:49:46;;;;;;;128.68;29.15;;;7.40;99.90;;;;;;5019446;28;20099;-65
2022/12/23 04:52:12;;;;;;;124.70;28.60;;;7.50;99.90;;;;;;5020323;28;20077;-65
2022/12/23 04:54:38;;;;;;;168.20;31.50;;;7.40;99.90;;;;;;5016658;28;20046;-65
2022/12/23 04:57:03;;;;;;;129.80;29.55;;;7.40;99.90;;;;;;5019690;28;20129;-65
2022/12/23 04:59:30;;;;;;;143.70;30.00;;;7.40;99.90;;;;;;5022486;28;20423;-65
2022/12/23 05:01:56;;;;;;;163.05;32.03;;;7.40;99.90;;;;;;5022086;28;20046;-66
2022/12/23 05:04:22;;;;;;;142.27;30.23;;;7.40;99.90;;;;;;5019451;28;20038;-65
2022/12/23 05:06:48;;;;;;;157.35;31.10;;;7.40;99.90;;;;;;5019489;28;20456;-66
2022/12/23 05:09:14;;;;;;;197.50;33.20;;;7.40;99.90;;;;;;5019004;28;20050;-65
2022/12/23 05:11:39;;;;;;;168.43;30.77;;;7.40;99.90;;;;;;5023473;28;20413;-65
2022/12/23 05:14:05;;;;;;;269.38;35.45;;;7.40;99.90;;;;;;5015793;28;20092;-65
2022/12/23 05:16:31;;;;;;;259.23;35.47;;;7.40;99.90;;;;;;5019833;28;20145;-65
2022/12/23 05:18:57;;;;;;;216.00;33.85;;;7.40;99.90;;;;;;5022055;28;20038;-65
2022/12/23 05:21:23;;;;;;;133.48;29.85;;;7.40;99.90;;;;;;5016435;28;20472;-65
2022/12/23 05:23:48;;;;;;;162.60;31.70;;;7.30;99.90;;;;;;5018816;28;20412;-65
2022/12/23 05:26:14;;;;;;;120.05;29.02;;;7.30;99.90;;;;;;5022155;28;20096;-65
2022/12/23 05:28:41;;;;;;;145.55;28.90;;;7.40;99.90;;;;;;5023868;28;20041;-65
2022/12/23 05:31:07;;;;;;;198.18;32.63;;;7.30;99.90;;;;;;5018178;28;20041;-65
2022/12/23 05:33:33;;;;;;;176.50;29.88;;;7.30;99.90;;;;;;5018584;28;20230;-64
2022/12/23 05:36:00;;;;;;;159.63;29.65;;;7.30;99.90;;;;;;5020931;28;20501;-65
2022/12/23 05:38:26;;;;;;;271.70;33.97;;;7.30;99.90;;;;;;5022425;28;20524;-66
2022/12/23 05:40:52;;;;;;;141.27;28.92;;;7.30;99.90;;;;;;5021901;28;20033;-65
2022/12/23 05:43:18;;;;;;;231.07;30.88;;;7.30;99.90;;;;;;5021881;28;20478;-65
2022/12/23 05:45:44;;;;;;;139.55;28.55;;;7.30;99.90;;;;;;5017761;28;20103;-65
2022/12/23 05:48:10;;;;;;;250.30;31.42;;;7.30;99.90;;;;;;5020721;28;20501;-65
2022/12/23 05:50:36;;;;;;;285.27;33.92;;;7.30;99.90;;;;;;5023195;28;20350;-66
2022/12/23 05:53:02;;;;;;;310.85;35.92;;;7.30;99.90;;;;;;5025662;28;20041;-65
2022/12/23 05:55:28;;;;;;;413.27;36.33;;;7.30;99.90;;;;;;5022278;28;20455;-65
2022/12/23 05:57:53;;;;;;;430.92;36.15;;;7.20;99.90;;;;;;5020218;28;20042;-65
2022/12/23 06:00:20;;;;;;;401.55;35.38;;;7.30;99.90;;;;;;5019747;28;20044;-65
2022/12/23 06:02:46;;;;;;;434.60;35.45;;;7.20;99.90;;;;;;5024509;28;20524;-65
2022/12/23 06:05:12;;;;;;;353.33;35.13;;;7.20;99.90;;;;;;5024309;28;20072;-66
2022/12/23 06:07:39;;;;;;;346.98;31.75;;;7.20;99.90;;;;;;5018357;28;20042;-65
2022/12/23 06:10:07;;;;;;;477.90;36.72;;;7.20;99.90;;;;;;5017520;28;20183;-65
2022/12/23 06:12:32;;;;;;;488.73;34.25;;;7.20;99.90;;;;;;5021680;28;20470;-65
2022/12/23 06:14:58;;;;;;;385.33;33.40;;;7.20;99.90;;;;;;5022021;28;20076;-66
2022/12/23 06:17:24;;;;;;;331.00;28.38;;;7.20;99.90;;;;;;5024960;28;20440;-64
2022/12/23 06:19:50;;;;;;;384.13;28.48;;;7.20;99.90;;;;;;5017186;28;20391;-65
2022/12/23 06:22:16;;;;;;;360.60;29.60;;;7.20;99.90;;;;;;5018489;28;20038;-65
2022/12/23 06:24:43;;;;;;;295.38;29.55;;;7.10;99.90;;;;;;5022631;28;20048;-65
2022/12/23 06:27:09;;;;;;;339.65;29.17;;;7.10;99.90;;;;;;5021616;28;20060;-65
2022/12/23 06:29:35;;;;;;;392.02;32.42;;;7.10;99.90;;;;;;5021330;28;20045;-66
2022/12/23 06:32:01;;;;;;;456.42;32.85;;;7.10;99.90;;;;;;5017858;28;20034;-66
2022/12/23 06:34:27;;;;;;;377.83;31.08;;;7.10;99.90;;;;;;5022828;28;20261;-65
2022/12/23 06:36:52;;;;;;;447.98;30.85;;;7.10;99.90;;;;;;5017119;28;20038;-64
2022/12/23 06:39:19;;;;;;;322.45;28.25;;;7.10;99.90;;;;;;5019368;28;20110;-65
2022/12/23 06:41:44;;;;;;;426.30;30.95;;;7.10;99.90;;;;;;5016725;28;20066;-65
2022/12/23 06:44:10;;;;;;;401.48;29.58;;;7.10;99.90;;;;;;5017669;28;20533;-65
2022/12/23 06:46:36;;;;;;;354.42;29.23;;;7.20;99.90;;;;;;5017325;28;20049;-65
2022/12/23 06:49:01;;;;;;;366.08;30.83;;;7.10;99.90;;;;;;5022093;28;20037;-65
2022/12/23 06:51:27;;;;;;;434.08;32.80;;;7.10;99.90;;;;;;5022208;28;20029;-65
2022/12/23 06:53:53;;;;;;;279.27;31.25;;;7.10;99.90;;;;;;5015230;28;20120;-65
2022/12/23 06:56:19;;;;;;;297.60;29.63;;;7.10;99.90;;;;;;5014089;28;20117;-65
2022/12/23 06:58:44;;;;;;;255.52;30.25;;;7.10;99.90;;;;;;5014033;28;20030;-65
2022/12/23 07:01:10;;;;;;;381.80;31.23;;;7.10;99.90;;;;;;5011463;28;20103;-65
2022/12/23 07:03:36;;;;;;;415.63;33.03;;;7.10;99.90;;;;;;5015902;28;20655;-65
2022/12/23 07:06:02;;;;;;;473.08;33.30;;;7.10;99.90;;;;;;5013816;28;20397;-65
2022/12/23 07:08:28;;;;;;;275.70;29.08;;;7.10;99.90;;;;;;5018566;28;20045;-65
2022/12/23 07:11:00;;;;;;;198.50;27.73;;;7.10;99.90;;;;;;5016388;28;20602;-65
2022/12/23 07:13:26;;;;;;;362.23;32.17;;;7.10;99.90;;;;;;5018724;28;20053;-64
2022/12/23 07:15:52;;;;;;;390.17;33.83;;;7.10;99.90;;;;;;5019857;28;20447;-64
2022/12/23 07:18:18;;;;;;;190.77;28.75;;;7.10;99.90;;;;;;5021652;28;20378;-65
2022/12/23 07:20:43;;;;;;;171.55;27.80;;;7.00;99.90;;;;;;5018852;28;20044;-64
2022/12/23 07:23:09;;;;;;;360.05;34.47;;;7.00;99.90;;;;;;5021007;28;20068;-64
2022/12/23 07:25:35;;;;;;;127.85;25.52;;;7.00;99.90;;;;;;5021754;28;20029;-64
2022/12/23 07:28:00;;;;;;;157.65;27.85;;;7.00;99.90;;;;;;5022060;28;20104;-65
2022/12/23 07:30:27;;;;;;;300.33;31.02;;;7.10;99.90;;;;;;5023024;28;20099;-66
2022/12/23 07:32:53;;;;;;;136.55;26.30;;;7.10;99.90;;;;;;5021482;28;20037;-65
2022/12/23 07:35:19;;;;;;;313.75;33.05;;;7.10;99.90;;;;;;5020144;28;20140;-64
2022/12/23 07:37:49;;;;;;;370.15;34.17;;;7.00;99.90;;;;;;5020826;28;20127;-65
2022/12/23 07:40:15;;;;;;;451.08;37.10;;;7.10;99.90;;;;;;5020996;28;20103;-65
2022/12/23 07:42:40;;;;;;;425.35;36.40;;;7.00;99.90;;;;;;5024352;28;20502;-65
2022/12/23 07:45:06;;;;;;;457.92;36.83;;;7.00;99.90;;;;;;5022606;28;20217;-65
2022/12/23 07:47:32;;;;;;;496.25;39.20;;;7.00;99.90;;;;;;5024554;28;20401;-65
2022/12/23 07:49:58;;;;;;;507.02;38.30;;;7.10;99.90;;;;;;5020383;28;20045;-66
2022/12/23 07:52:23;;;;;;;211.93;29.60;;;7.00;99.90;;;;;;5022102;28;20038;-65
2022/12/23 07:54:49;;;;;;;313.33;35.55;;;7.00;99.90;;;;;;5021940;28;20135;-65
2022/12/23 07:57:15;;;;;;;467.58;36.33;;;7.10;99.90;;;;;;5023951;28;20404;-65
2022/12/23 07:59:40;;;;;;;500.08;37.22;;;7.00;99.90;;;;;;5018723;28;20117;-65
2022/12/23 08:02:07;;;;;;;605.50;39.30;;;7.10;99.90;;;;;;5023951;28;20037;-65
2022/12/23 08:04:33;;;;;;;520.78;36.60;;;7.00;99.90;;;;;;5022073;28;20093;-66
2022/12/23 08:06:59;;;;;;;314.15;33.88;;;7.00;99.90;;;;;;5022630;28;20135;-65
2022/12/23 08:09:24;;;;;;;591.58;37.67;;;7.10;99.90;;;;;;5025605;28;20053;-65
2022/12/23 08:11:50;;;;;;;480.33;33.35;;;7.00;99.90;;;;;;5019407;28;20053;-65
2022/12/23 08:14:16;;;;;;;270.95;30.77;;;7.00;99.90;;;;;;5024431;28;20408;-66
2022/12/23 08:16:41;;;;;;;603.83;39.45;;;7.00;99.90;;;;;;5020215;28;20473;-66
2022/12/23 08:19:07;;;;;;;550.13;36.50;;;7.00;99.90;;;;;;5023090;28;20049;-65
2022/12/23 08:21:33;;;;;;;471.48;33.58;;;7.00;99.90;;;;;;5024890;28;20037;-65
2022/12/23 08:23:58;;;;;;;451.70;32.60;;;7.00;99.90;;;;;;5022820;28;20135;-65
2022/12/23 08:26:24;;;;;;;360.58;28.17;;;7.10;99.90;;;;;;5017684;28;20063;-65
2022/12/23 08:28:54;;;;;;;460.38;31.80;;;7.00;99.90;;;;;;5018214;28;20033;-65
2022/12/23 08:31:22;;;;;;;405.48;33.17;;;7.00;99.90;;;;;;5016593;28;20030;-65
2022/12/23 08:33:51;;;;;;;425.60;31.60;;;7.10;99.90;;;;;;5017051;28;20129;-65
2022/12/23 08:36:19;;;;;;;433.23;33.92;;;7.10;99.90;;;;;;5015254;28;20038;-67
2022/12/23 08:38:45;;;;;;;322.73;32.20;;;7.10;99.90;;;;;;5015563;28;20041;-65
2022/12/23 08:41:15;;;;;;;385.15;29.88;;;7.10;99.90;;;;;;5019173;28;20095;-65
2022/12/23 08:43:40;;;;;;;259.00;26.20;;;7.10;99.90;;;;;;5020697;28;20121;-65
2022/12/23 08:46:07;;;;;;;403.17;32.63;;;7.10;99.90;;;;;;5021365;28;20116;-65
2022/12/23 08:48:34;;;;;;;453.25;34.38;;;7.20;99.90;;;;;;5020515;28;20481;-65
2022/12/23 08:51:05;;;;;;;379.92;31.92;;;7.20;99.90;;;;;;5026217;28;20112;-65
2022/12/23 08:53:31;;;;;;;378.40;31.88;;;7.20;99.90;;;;;;5019602;28;20043;-65
2022/12/23 08:56:04;;;;;;;324.23;31.02;;;7.10;99.90;;;;;;5017711;28;20081;-65
2022/12/23 08:58:30;;;;;;;397.52;32.17;;;7.20;99.90;;;;;;5020704;28;20394;-65
2022/12/23 09:00:56;;;;;;;426.65;34.08;;;7.20;99.90;;;;;;5022956;28;20041;-65
2022/12/23 09:03:22;;;;;;;438.83;32.25;;;7.20;99.90;;;;;;5020234;28;20038;-65
2022/12/23 09:05:48;;;;;;;365.60;32.67;;;7.30;99.90;;;;;;5024560;28;20056;-65
2022/12/23 09:08:13;;;;;;;225.50;29.27;;;7.20;99.90;;;;;;5019718;28;20662;-65
2022/12/23 09:10:41;;;;;;;167.15;28.38;;;7.30;99.90;;;;;;5023302;28;20034;-65
2022/12/23 09:13:10;;;;;;;169.98;26.80;;;7.30;99.90;;;;;;5022578;28;20390;-66
2022/12/23 09:15:43;;;;;;;213.73;29.67;;;7.30;99.90;;;;;;5022047;28;20065;-65
2022/12/23 09:18:10;;;;;;;165.00;27.52;;;7.30;99.90;;;;;;5007067;28;20116;-65
2022/12/23 09:20:37;;;;;;;121.55;25.48;;;7.40;99.90;;;;;;5024551;28;20397;-65
2022/12/23 09:23:04;;;;;;;297.95;31.77;;;7.40;99.90;;;;;;5021592;28;20030;-65
2022/12/23 09:25:30;;;;;;;204.88;29.25;;;7.30;99.90;;;;;;5021686;28;20029;-65
2022/12/23 09:27:56;;;;;;;158.63;26.75;;;7.40;99.90;;;;;;5037705;28;20064;-65
2022/12/23 09:30:21;;;;;;;216.70;28.17;;;7.40;99.90;;;;;;5021004;28;20465;-65
2022/12/23 09:32:47;;;;;;;240.43;30.65;;;7.50;99.90;;;;;;5017904;28;20099;-66
2022/12/23 09:35:13;;;;;;;247.07;30.70;;;7.50;99.90;;;;;;5023449;28;20112;-65
2022/12/23 09:37:39;;;;;;;232.98;30.05;;;7.50;99.90;;;;;;5022129;28;20056;-64
2022/12/23 09:40:05;;;;;;;157.40;25.08;;;7.50;99.90;;;;;;5023056;28;20052;-64
2022/12/23 09:42:49;;;;;;;239.93;29.15;;;7.50;99.90;;;;;;5018937;28;20144;-64
2022/12/23 09:45:39;;;;;;;110.68;21.85;;;7.60;99.90;;;;;;5015603;28;20041;-64
2022/12/23 09:48:13;;;;;;;214.85;28.58;;;7.70;99.90;;;;;;5013635;28;20405;-65
2022/12/23 09:50:40;;;;;;;114.07;23.43;;;7.70;99.90;;;;;;5023425;28;20061;-65
2022/12/23 09:53:12;;;;;;;78.53;20.65;;;7.70;99.90;;;;;;5020670;28;20506;-65
2022/12/23 09:55:56;;;;;;;76.00;21.02;;;7.70;99.90;;;;;;5021454;28;20045;-64
2022/12/23 09:58:45;;;;;;;73.40;19.93;;;7.70;99.90;;;;;;5037865;28;20120;-64
2022/12/23 10:01:27;;;;;;;59.45;18.52;;;7.60;99.90;;;;;;5022050;28;20464;-65
2022/12/23 10:04:19;;;;;;;158.45;25.00;;;7.70;99.90;;;;;;5018181;28;20140;-65
2022/12/23 10:06:54;;;;;;;100.40;21.13;;;7.60;99.90;;;;;;5022204;28;20068;-65
2022/12/23 10:09:20;;;;;;;139.35;21.95;;;7.60;99.90;;;;;;5020591;28;20037;-65
2022/12/23 10:11:48;;;;;;;80.05;20.17;;;7.60;99.90;;;;;;5023795;28;20064;-65
2022/12/23 10:14:30;;;;;;;113.18;23.00;;;7.70;99.90;;;;;;5019814;28;20457;-64
2022/12/23 10:17:01;;;;;;;75.22;20.73;;;7.60;99.90;;;;;;5014737;28;20944;-64
2022/12/23 10:19:40;;;;;;;82.28;20.33;;;7.60;99.90;;;;;;5015865;28;20042;-65
2022/12/23 10:22:29;;;;;;;146.38;26.63;;;7.70;99.90;;;;;;5022540;28;20049;-64
2022/12/23 10:24:57;;;;;;;51.95;18.75;;;7.70;99.90;;;;;;5017134;28;20083;-65
2022/12/23 10:27:38;;;;;;;74.38;20.23;;;7.70;99.90;;;;;;5016182;28;20038;-65
2022/12/23 10:30:15;;;;;;;146.38;23.88;;;7.70;99.90;;;;;;5013524;28;20497;-65
2022/12/23 10:32:44;;;;;;;152.25;24.92;;;7.70;99.90;;;;;;5023447;28;20053;-65
2022/12/23 10:35:47;;;;;;;123.53;24.02;;;7.60;99.90;;;;;;5019508;28;20088;-65
2022/12/23 10:38:40;;;;;;;68.20;20.23;;;7.70;99.90;;;;;;5000719;28;20655;-65
2022/12/23 10:41:25;;;;;;;66.20;20.52;;;7.70;99.90;;;;;;5018725;28;20046;-64
2022/12/23 10:43:56;;;;;;;74.25;22.20;;;7.70;99.90;;;;;;5019728;28;20149;-64
2022/12/23 10:46:31;;;;;;;69.82;20.85;;;7.70;99.90;;;;;;5019564;28;20045;-64
2022/12/23 10:49:14;;;;;;;90.50;22.00;;;7.70;99.90;;;;;;5017559;28;20034;-64
2022/12/23 10:51:53;;;;;;;54.78;19.27;;;7.70;99.90;;;;;;5020794;28;20409;-65
2022/12/23 10:54:31;;;;;;;49.42;19.83;;;7.80;99.90;;;;;;5024085;28;20038;-65
2022/12/23 10:56:57;;;;;;;75.03;21.10;;;7.80;99.90;;;;;;5019716;28;20042;-64
2022/12/23 10:59:29;;;;;;;48.08;17.98;;;7.80;99.90;;;;;;5027675;28;20048;-64
2022/12/23 11:02:04;;;;;;;40.10;17.42;;;7.80;99.90;;;;;;5021504;28;20037;-64
2022/12/23 11:04:36;;;;;;;56.17;17.77;;;7.80;99.90;;;;;;5022837;28;20107;-65
2022/12/23 11:07:03;;;;;;;85.72;19.85;;;7.80;99.90;;;;;;5020284;28;20077;-64
2022/12/23 11:09:44;;;;;;;96.47;20.00;;;7.80;99.90;;;;;;5023117;28;20510;-64
2022/12/23 11:12:11;;;;;;;31.52;13.75;;;7.80;99.90;;;;;;5018748;28;20256;-64
2022/12/23 11:14:40;;;;;;;35.13;14.52;;;7.80;99.90;;;;;;5023412;28;20046;-65
2022/12/23 11:17:22;;;;;;;35.33;14.32;;;7.90;99.90;;;;;;5032739;28;20087;-65
2022/12/23 11:20:07;;;;;;;34.15;14.05;;;7.80;99.90;;;;;;5021167;28;20128;-65
2022/12/23 11:22:32;;;;;;;;;;;7.80;99.90;;;;;;5023628;28;20038;-65
2022/12/23 11:25:27;;;;;;;48.28;15.77;;;7.80;99.90;;;;;;5023759;28;19975;-65
2022/12/23 11:28:06;;;;;;;46.03;15.00;;;7.90;99.90;;;;;;5019753;28;20052;-65
2022/12/23 11:30:46;;;;;;;29.38;14.00;;;7.90;99.90;;;;;;5022824;28;20134;-65
2022/12/23 11:33:34;;;;;;;33.33;14.00;;;7.80;99.90;;;;;;5027990;28;20167;-64
2022/12/23 11:36:01;;;;;;;47.13;15.00;;;7.80;99.90;;;;;;5025116;28;20041;-65
2022/12/23 11:38:27;;;;;;;39.45;15.13;;;7.80;99.90;;;;;;5018050;28;20052;-64
2022/12/23 11:40:53;;;;;;;48.42;16.30;;;7.80;99.90;;;;;;5021087;28;20030;-65
2022/12/23 11:43:21;;;;;;;27.52;13.13;;;7.90;99.90;;;;;;5018209;28;20096;-64
2022/12/23 11:46:07;;;;;;;52.08;15.45;;;7.80;99.90;;;;;;5021961;28;20050;-64
2022/12/23 11:48:33;;;;;;;35.05;13.80;;;7.90;99.90;;;;;;5017177;28;20041;-64
2022/12/23 11:51:01;;;;;;;34.17;13.73;;;7.80;99.90;;;;;;5024769;28;20045;-65
2022/12/23 11:53:27;;;;;;;26.23;12.75;;;7.80;99.90;;;;;;5020944;28;20049;-64
2022/12/23 11:55:59;;;;;;;34.55;14.55;;;7.90;99.90;;;;;;5020253;28;20033;-65
2022/12/23 11:58:26;;;;;;;25.35;12.55;;;7.90;99.90;;;;;;5019693;28;20130;-65
2022/12/23 12:00:58;;;;;;;27.75;13.10;;;7.90;99.90;;;;;;5022106;28;20451;-65
2022/12/23 12:03:30;;;;;;;33.28;13.25;;;8.00;99.90;;;;;;5018223;28;20050;-65
2022/12/23 12:06:03;;;;;;;38.80;14.80;;;7.90;99.90;;;;;;5022613;28;20425;-65
2022/12/23 12:08:37;;;;;;;42.78;14.73;;;7.90;99.90;;;;;;5018297;28;20049;-65
2022/12/23 12:11:28;;;;;;;49.78;16.20;;;7.90;99.90;;;;;;5022763;28;20524;-65
2022/12/23 12:14:01;;;;;;;52.00;16.13;;;7.90;99.90;;;;;;5015080;28;20061;-65
2022/12/23 12:16:43;;;;;;;41.50;15.35;;;7.90;99.90;;;;;;5017493;28;20049;-66
2022/12/23 12:19:34;;;;;;;64.03;16.85;;;7.90;99.90;;;;;;5018633;28;20520;-65
2022/12/23 12:22:18;;;;;;;65.32;17.38;;;7.80;99.90;;;;;;5016471;28;20046;-67
2022/12/23 12:24:51;;;;;;;58.40;17.05;;;7.80;99.90;;;;;;5016205;28;20042;-66
2022/12/23 12:27:19;;;;;;;40.80;15.85;;;7.80;99.90;;;;;;5016529;28;20070;-66
2022/12/23 12:29:54;;;;;;;35.45;15.57;;;7.80;99.90;;;;;;5012698;28;20050;-66
2022/12/23 12:32:44;;;;;;;47.08;16.60;;;7.90;99.90;;;;;;5015270;28;20057;-66
2022/12/23 12:35:48;;;;;;;54.70;17.67;;;7.70;99.90;;;;;;5032530;28;20057;-66
2022/12/23 12:38:21;;;;;;;79.95;18.38;;;7.70;99.90;;;;;;5017417;28;20046;-66
2022/12/23 12:40:56;;;;;;;81.25;18.80;;;7.80;99.90;;;;;;5013761;28;20494;-66
2022/12/23 12:43:25;;;;;;;38.55;16.27;;;7.80;99.90;;;;;;5016462;28;20065;-66
2022/12/23 12:46:17;;;;;;;72.93;17.73;;;7.70;99.90;;;;;;5012504;28;20502;-66
2022/12/23 12:49:04;;;;;;;35.55;14.48;;;7.70;99.90;;;;;;5016278;28;20087;-65
2022/12/23 12:51:41;;;;;;;62.70;16.60;;;7.80;99.90;;;;;;5019393;28;20041;-66
2022/12/23 12:54:30;;;;;;;37.28;14.68;;;7.70;99.90;;;;;;5033646;28;20041;-65
2022/12/23 12:56:57;;;;;;;39.28;14.30;;;7.70;99.90;;;;;;5015749;28;20137;-66
2022/12/23 12:59:35;;;;;;;41.10;15.02;;;7.70;99.90;;;;;;5011902;28;20037;-66
2022/12/23 13:02:24;;;;;;;34.90;14.02;;;7.70;99.90;;;;;;5020277;28;20056;-66
2022/12/23 13:04:59;;;;;;;49.00;15.30;;;7.70;99.90;;;;;;5017297;28;20042;-66
2022/12/23 13:07:45;;;;;;;;;;;7.70;99.90;;;;;;5016913;28;20181;-66
2022/12/23 13:10:14;;;;;;;;;;;7.70;99.90;;;;;;5021025;28;20432;-66
2022/12/23 13:12:39;;;;;;;33.78;14.38;;;7.60;99.90;;;;;;5015658;28;19983;-66